sensor_id;sensor_type;location;lat;lon;timestamp;pressure;altitude;pressure_sealevel;temperature;humidity
71666;BME280;59503;53.486;10.196;2023-03-14T00:00:35;98865.81;;;9.57;100.00
71666;BME280;59503;53.486;10.196;2023-03-14T00:03:01;98867.38;;;9.54;100.00
71666;BME280;59503;53.486;10.196;2023-03-14T00:05:26;98872.88;;;9.47;100.00
71666;BME280;59503;53.486;10.196;2023-03-14T00:07:52;98889.53;;;9.46;100.00
71666;BME280;59503;53.486;10.196;2023-03-14T00:10:18;98903.09;;;9.46;100.00
71666;BME280;59503;53.486;10.196;2023-03-14T00:12:44;98922.09;;;9.42;100.00
71666;BME280;59503;53.486;10.196;2023-03-14T00:15:10;98910.50;;;9.38;100.00
71666;BME280;59503;53.486;10.196;2023-03-14T00:17:36;98917.44;;;9.43;100.00
71666;BME280;59503;53.486;10.196;2023-03-14T00:20:05;98902.81;;;9.30;100.00
71666;BME280;59503;53.486;10.196;2023-03-14T00:22:35;98914.00;;;9.35;100.00
71666;BME280;59503;53.486;10.196;2023-03-14T00:25:01;98897.78;;;9.32;100.00
71666;BME280;59503;53.486;10.196;2023-03-14T00:27:27;98895.84;;;9.29;100.00
71666;BME280;59503;53.486;10.196;2023-03-14T00:29:52;98898.16;;;9.30;100.00
71666;BME280;59503;53.486;10.196;2023-03-14T00:32:18;98887.38;;;9.20;100.00
71666;BME280;59503;53.486;10.196;2023-03-14T00:34:43;98882.38;;;9.15;100.00
71666;BME280;59503;53.486;10.196;2023-03-14T00:37:08;98886.69;;;9.09;100.00
71666;BME280;59503;53.486;10.196;2023-03-14T00:39:34;98891.38;;;8.98;100.00
71666;BME280;59503;53.486;10.196;2023-03-14T00:41:59;98879.81;;;8.94;100.00
71666;BME280;59503;53.486;10.196;2023-03-14T00:44:25;98871.69;;;8.90;100.00
71666;BME280;59503;53.486;10.196;2023-03-14T00:46:50;98866.69;;;8.89;100.00
71666;BME280;59503;53.486;10.196;2023-03-14T00:49:15;98854.72;;;8.75;100.00
71666;BME280;59503;53.486;10.196;2023-03-14T00:51:41;98859.03;;;8.66;100.00
71666;BME280;59503;53.486;10.196;2023-03-14T00:54:06;98856.75;;;8.57;100.00
71666;BME280;59503;53.486;10.196;2023-03-14T00:56:32;98850.63;;;8.50;100.00
71666;BME280;59503;53.486;10.196;2023-03-14T00:58:57;98843.28;;;8.43;100.00
71666;BME280;59503;53.486;10.196;2023-03-14T01:01:23;98842.94;;;8.34;100.00
71666;BME280;59503;53.486;10.196;2023-03-14T01:03:52;98858.78;;;8.32;100.00
71666;BME280;59503;53.486;10.196;2023-03-14T01:06:24;98847.59;;;8.20;100.00
71666;BME280;59503;53.486;10.196;2023-03-14T01:08:50;98871.94;;;8.30;100.00
71666;BME280;59503;53.486;10.196;2023-03-14T01:11:25;98887.03;;;8.28;100.00
71666;BME280;59503;53.486;10.196;2023-03-14T01:13:52;98899.41;;;8.32;100.00
71666;BME280;59503;53.486;10.196;2023-03-14T01:16:18;98907.91;;;8.34;100.00
71666;BME280;59503;53.486;10.196;2023-03-14T01:18:45;98892.06;;;8.36;100.00
71666;BME280;59503;53.486;10.196;2023-03-14T01:21:17;98889.28;;;8.43;100.00
71666;BME280;59503;53.486;10.196;2023-03-14T01:23:43;98890.06;;;8.47;100.00
71666;BME280;59503;53.486;10.196;2023-03-14T01:26:11;98888.81;;;8.69;100.00
71666;BME280;59503;53.486;10.196;2023-03-14T01:28:37;98871.72;;;8.83;100.00
71666;BME280;59503;53.486;10.196;2023-03-14T01:31:08;98865.13;;;8.88;100.00
71666;BME280;59503;53.486;10.196;2023-03-14T01:33:33;98848.91;;;8.80;100.00
71666;BME280;59503;53.486;10.196;2023-03-14T01:35:59;98841.56;;;8.81;100.00
71666;BME280;59503;53.486;10.196;2023-03-14T01:38:28;98831.94;;;8.73;100.00
71666;BME280;59503;53.486;10.196;2023-03-14T01:40:53;98826.06;;;8.82;100.00
71666;BME280;59503;53.486;10.196;2023-03-14T01:43:19;98826.47;;;8.84;100.00
71666;BME280;59503;53.486;10.196;2023-03-14T01:48:26;98835.31;;;8.88;100.00
71666;BME280;59503;53.486;10.196;2023-03-14T01:50:54;98839.13;;;8.97;100.00
71666;BME280;59503;53.486;10.196;2023-03-14T01:53:19;98824.75;;;9.07;100.00
71666;BME280;59503;53.486;10.196;2023-03-14T01:55:49;98811.56;;;9.09;100.00
71666;BME280;59503;53.486;10.196;2023-03-14T01:58:16;98799.47;;;9.21;100.00
71666;BME280;59503;53.486;10.196;2023-03-14T02:00:42;98810.19;;;9.35;100.00
71666;BME280;59503;53.486;10.196;2023-03-14T02:03:14;98807.84;;;9.40;100.00
71666;BME280;59503;53.486;10.196;2023-03-14T02:05:41;98799.34;;;9.35;100.00
71666;BME280;59503;53.486;10.196;2023-03-14T02:08:10;98812.81;;;9.49;100.00
71666;BME280;59503;53.486;10.196;2023-03-14T02:10:45;98803.44;;;9.57;100.00
71666;BME280;59503;53.486;10.196;2023-03-14T02:13:11;98795.66;;;9.59;100.00
71666;BME280;59503;53.486;10.196;2023-03-14T02:15:38;98775.91;;;9.58;100.00
71666;BME280;59503;53.486;10.196;2023-03-14T02:18:04;98752.19;;;9.66;100.00
71666;BME280;59503;53.486;10.196;2023-03-14T02:20:53;98748.34;;;9.63;100.00
71666;BME280;59503;53.486;10.196;2023-03-14T02:26:15;98734.53;;;9.51;100.00
71666;BME280;59503;53.486;10.196;2023-03-14T02:28:44;98743.78;;;9.53;100.00
71666;BME280;59503;53.486;10.196;2023-03-14T02:31:10;98756.13;;;9.58;100.00
71666;BME280;59503;53.486;10.196;2023-03-14T02:33:37;98742.28;;;9.49;100.00
71666;BME280;59503;53.486;10.196;2023-03-14T02:36:09;98745.00;;;9.49;100.00
71666;BME280;59503;53.486;10.196;2023-03-14T02:38:47;98749.25;;;9.50;100.00
71666;BME280;59503;53.486;10.196;2023-03-14T02:41:16;98755.44;;;9.50;100.00
71666;BME280;59503;53.486;10.196;2023-03-14T02:43:41;98765.94;;;9.45;100.00
71666;BME280;59503;53.486;10.196;2023-03-14T02:46:10;98770.22;;;9.46;100.00
71666;BME280;59503;53.486;10.196;2023-03-14T02:48:44;98766.75;;;9.42;100.00
71666;BME280;59503;53.486;10.196;2023-03-14T02:51:12;98758.31;;;9.33;100.00
71666;BME280;59503;53.486;10.196;2023-03-14T02:53:39;98771.16;;;9.29;100.00
71666;BME280;59503;53.486;10.196;2023-03-14T02:56:07;98761.16;;;9.19;100.00
71666;BME280;59503;53.486;10.196;2023-03-14T02:58:32;98759.66;;;9.11;100.00
71666;BME280;59503;53.486;10.196;2023-03-14T03:00:58;98769.38;;;9.08;100.00
71666;BME280;59503;53.486;10.196;2023-03-14T03:03:23;98763.16;;;9.08;100.00
71666;BME280;59503;53.486;10.196;2023-03-14T03:05:50;98747.00;;;8.97;100.00
71666;BME280;59503;53.486;10.196;2023-03-14T03:08:17;98765.16;;;9.04;100.00
71666;BME280;59503;53.486;10.196;2023-03-14T03:10:43;98763.25;;;8.97;100.00
71666;BME280;59503;53.486;10.196;2023-03-14T03:13:08;98763.59;;;9.03;100.00
71666;BME280;59503;53.486;10.196;2023-03-14T03:15:33;98764.38;;;9.03;100.00
71666;BME280;59503;53.486;10.196;2023-03-14T03:17:59;98776.75;;;9.04;100.00
71666;BME280;59503;53.486;10.196;2023-03-14T03:20:24;98772.09;;;9.05;100.00
71666;BME280;59503;53.486;10.196;2023-03-14T03:22:50;98768.59;;;9.08;100.00
71666;BME280;59503;53.486;10.196;2023-03-14T03:25:15;98755.41;;;9.10;100.00
71666;BME280;59503;53.486;10.196;2023-03-14T03:27:41;98747.66;;;9.12;100.00
71666;BME280;59503;53.486;10.196;2023-03-14T03:30:07;98741.84;;;9.13;100.00
71666;BME280;59503;53.486;10.196;2023-03-14T03:32:33;98754.19;;;9.18;100.00
71666;BME280;59503;53.486;10.196;2023-03-14T03:34:58;98741.81;;;9.17;100.00
71666;BME280;59503;53.486;10.196;2023-03-14T03:37:24;98746.84;;;9.15;100.00
71666;BME280;59503;53.486;10.196;2023-03-14T03:39:50;98736.44;;;9.10;100.00
71666;BME280;59503;53.486;10.196;2023-03-14T03:42:16;98739.13;;;9.13;100.00
71666;BME280;59503;53.486;10.196;2023-03-14T03:44:41;98735.63;;;9.13;100.00
71666;BME280;59503;53.486;10.196;2023-03-14T03:47:07;98721.00;;;9.07;100.00
71666;BME280;59503;53.486;10.196;2023-03-14T03:49:32;98725.59;;;9.10;100.00
71666;BME280;59503;53.486;10.196;2023-03-14T03:51:58;98730.22;;;9.13;100.00
71666;BME280;59503;53.486;10.196;2023-03-14T03:54:24;98723.63;;;9.17;100.00
71666;BME280;59503;53.486;10.196;2023-03-14T03:56:50;98719.38;;;9.13;100.00
71666;BME280;59503;53.486;10.196;2023-03-14T03:59:16;98716.72;;;9.06;100.00
71666;BME280;59503;53.486;10.196;2023-03-14T04:01:42;98714.13;;;8.95;100.00
71666;BME280;59503;53.486;10.196;2023-03-14T04:04:07;98720.38;;;8.89;100.00
71666;BME280;59503;53.486;10.196;2023-03-14T04:06:33;98712.69;;;8.80;100.00
71666;BME280;59503;53.486;10.196;2023-03-14T04:08:58;98705.00;;;8.75;100.00
71666;BME280;59503;53.486;10.196;2023-03-14T04:11:24;98710.38;;;8.78;100.00
71666;BME280;59503;53.486;10.196;2023-03-14T04:13:49;98708.81;;;8.81;100.00
71666;BME280;59503;53.486;10.196;2023-03-14T04:16:18;98703.00;;;8.82;100.00
71666;BME280;59503;53.486;10.196;2023-03-14T04:18:44;98704.13;;;8.89;100.00
71666;BME280;59503;53.486;10.196;2023-03-14T04:21:09;98694.34;;;8.98;100.00
71666;BME280;59503;53.486;10.196;2023-03-14T04:23:35;98679.22;;;9.01;100.00
71666;BME280;59503;53.486;10.196;2023-03-14T04:26:00;98685.69;;;9.14;100.00
71666;BME280;59503;53.486;10.196;2023-03-14T04:28:26;98689.97;;;9.11;100.00
71666;BME280;59503;53.486;10.196;2023-03-14T04:30:51;98685.28;;;9.15;100.00
71666;BME280;59503;53.486;10.196;2023-03-14T04:33:16;98679.38;;;9.27;100.00
71666;BME280;59503;53.486;10.196;2023-03-14T04:35:43;98678.59;;;9.27;100.00
71666;BME280;59503;53.486;10.196;2023-03-14T04:38:09;98657.63;;;9.31;100.00
71666;BME280;59503;53.486;10.196;2023-03-14T04:40:41;98672.59;;;9.46;100.00
71666;BME280;59503;53.486;10.196;2023-03-14T04:43:08;98662.88;;;9.48;100.00
71666;BME280;59503;53.486;10.196;2023-03-14T04:45:35;98661.75;;;9.46;100.00
71666;BME280;59503;53.486;10.196;2023-03-14T04:48:00;98655.81;;;9.54;100.00
71666;BME280;59503;53.486;10.196;2023-03-14T04:50:25;98657.00;;;9.53;100.00
71666;BME280;59503;53.486;10.196;2023-03-14T04:52:51;98653.91;;;9.51;100.00
71666;BME280;59503;53.486;10.196;2023-03-14T04:55:16;98649.31;;;9.48;100.00
71666;BME280;59503;53.486;10.196;2023-03-14T04:57:42;98648.44;;;9.55;100.00
71666;BME280;59503;53.486;10.196;2023-03-14T05:00:08;98651.47;;;9.64;100.00
71666;BME280;59503;53.486;10.196;2023-03-14T05:02:34;98648.28;;;9.69;100.00
71666;BME280;59503;53.486;10.196;2023-03-14T05:05:00;98648.56;;;9.78;100.00
71666;BME280;59503;53.486;10.196;2023-03-14T05:07:25;98642.53;;;9.93;100.00
71666;BME280;59503;53.486;10.196;2023-03-14T05:09:51;98648.09;;;9.83;100.00
71666;BME280;59503;53.486;10.196;2023-03-14T05:12:19;98635.72;;;9.82;100.00
71666;BME280;59503;53.486;10.196;2023-03-14T05:14:44;98627.94;;;9.84;100.00
71666;BME280;59503;53.486;10.196;2023-03-14T05:17:10;98642.00;;;9.75;100.00
71666;BME280;59503;53.486;10.196;2023-03-14T05:19:36;98637.00;;;9.74;100.00
71666;BME280;59503;53.486;10.196;2023-03-14T05:22:02;98642.16;;;9.61;100.00
71666;BME280;59503;53.486;10.196;2023-03-14T05:24:28;98646.84;;;9.61;100.00
71666;BME280;59503;53.486;10.196;2023-03-14T05:26:53;98642.31;;;9.51;100.00
71666;BME280;59503;53.486;10.196;2023-03-14T05:29:18;98633.88;;;9.42;100.00
71666;BME280;59503;53.486;10.196;2023-03-14T05:31:44;98635.84;;;9.38;100.00
71666;BME280;59503;53.486;10.196;2023-03-14T05:34:09;98635.41;;;9.43;100.00
71666;BME280;59503;53.486;10.196;2023-03-14T05:36:35;98635.56;;;9.32;100.00
71666;BME280;59503;53.486;10.196;2023-03-14T05:39:00;98632.50;;;9.27;100.00
71666;BME280;59503;53.486;10.196;2023-03-14T05:41:26;98631.28;;;9.31;100.00
71666;BME280;59503;53.486;10.196;2023-03-14T05:43:51;98630.16;;;9.29;100.00
71666;BME280;59503;53.486;10.196;2023-03-14T05:46:16;98640.19;;;9.32;100.00
71666;BME280;59503;53.486;10.196;2023-03-14T05:48:42;98629.44;;;9.25;100.00
71666;BME280;59503;53.486;10.196;2023-03-14T05:51:07;98631.06;;;9.19;100.00
71666;BME280;59503;53.486;10.196;2023-03-14T05:53:32;98625.97;;;9.21;100.00
71666;BME280;59503;53.486;10.196;2023-03-14T05:55:58;98628.53;;;9.35;100.00
71666;BME280;59503;53.486;10.196;2023-03-14T05:58:24;98620.03;;;9.33;100.00
71666;BME280;59503;53.486;10.196;2023-03-14T06:00:50;98621.16;;;9.39;100.00
71666;BME280;59503;53.486;10.196;2023-03-14T06:03:16;98619.97;;;9.40;100.00
71666;BME280;59503;53.486;10.196;2023-03-14T06:05:41;98614.53;;;9.40;100.00
71666;BME280;59503;53.486;10.196;2023-03-14T06:08:08;98610.75;;;9.34;100.00
71666;BME280;59503;53.486;10.196;2023-03-14T06:10:35;98615.28;;;9.44;100.00
71666;BME280;59503;53.486;10.196;2023-03-14T06:13:01;98622.53;;;9.54;100.00
71666;BME280;59503;53.486;10.196;2023-03-14T06:15:26;98624.38;;;9.60;100.00
71666;BME280;59503;53.486;10.196;2023-03-14T06:17:54;98619.06;;;9.50;100.00
71666;BME280;59503;53.486;10.196;2023-03-14T06:20:19;98632.19;;;9.55;100.00
71666;BME280;59503;53.486;10.196;2023-03-14T06:22:45;98630.94;;;9.59;100.00
71666;BME280;59503;53.486;10.196;2023-03-14T06:25:10;98629.88;;;9.53;100.00
71666;BME280;59503;53.486;10.196;2023-03-14T06:27:35;98625.53;;;9.59;100.00
71666;BME280;59503;53.486;10.196;2023-03-14T06:30:01;98624.50;;;9.50;100.00
71666;BME280;59503;53.486;10.196;2023-03-14T06:32:26;98642.59;;;9.60;100.00
71666;BME280;59503;53.486;10.196;2023-03-14T06:34:52;98634.94;;;9.51;100.00
71666;BME280;59503;53.486;10.196;2023-03-14T06:37:18;98639.94;;;9.53;100.00
71666;BME280;59503;53.486;10.196;2023-03-14T06:39:43;98647.75;;;9.51;100.00
71666;BME280;59503;53.486;10.196;2023-03-14T06:42:09;98642.81;;;9.42;100.00
71666;BME280;59503;53.486;10.196;2023-03-14T06:44:35;98657.03;;;9.50;100.00
71666;BME280;59503;53.486;10.196;2023-03-14T06:47:01;98650.78;;;9.53;100.00
71666;BME280;59503;53.486;10.196;2023-03-14T06:49:26;98652.50;;;9.40;100.00
71666;BME280;59503;53.486;10.196;2023-03-14T06:51:52;98656.03;;;9.37;100.00
71666;BME280;59503;53.486;10.196;2023-03-14T06:54:17;98671.09;;;9.38;100.00
71666;BME280;59503;53.486;10.196;2023-03-14T06:56:43;98672.72;;;9.32;100.00
71666;BME280;59503;53.486;10.196;2023-03-14T06:59:08;98664.16;;;9.37;100.00
71666;BME280;59503;53.486;10.196;2023-03-14T07:01:34;98666.34;;;9.49;100.00
71666;BME280;59503;53.486;10.196;2023-03-14T07:04:00;98669.44;;;9.51;100.00
71666;BME280;59503;53.486;10.196;2023-03-14T07:06:26;98675.53;;;9.58;100.00
71666;BME280;59503;53.486;10.196;2023-03-14T07:08:54;98680.16;;;9.61;100.00
71666;BME280;59503;53.486;10.196;2023-03-14T07:11:20;98686.97;;;9.73;100.00
71666;BME280;59503;53.486;10.196;2023-03-14T07:13:45;98686.97;;;9.73;100.00
71666;BME280;59503;53.486;10.196;2023-03-14T07:16:11;98685.78;;;9.77;100.00
71666;BME280;59503;53.486;10.196;2023-03-14T07:18:37;98691.22;;;9.77;100.00
71666;BME280;59503;53.486;10.196;2023-03-14T07:21:03;98700.63;;;9.99;100.00
71666;BME280;59503;53.486;10.196;2023-03-14T07:23:28;98681.56;;;9.73;100.00
71666;BME280;59503;53.486;10.196;2023-03-14T07:25:56;98690.84;;;9.75;100.00
71666;BME280;59503;53.486;10.196;2023-03-14T07:28:21;98692.34;;;9.80;100.00
71666;BME280;59503;53.486;10.196;2023-03-14T07:30:48;98687.69;;;9.80;100.00
71666;BME280;59503;53.486;10.196;2023-03-14T07:33:14;98696.28;;;10.09;100.00
71666;BME280;59503;53.486;10.196;2023-03-14T07:35:40;98689.94;;;10.19;100.00
71666;BME280;59503;53.486;10.196;2023-03-14T07:38:05;98700.88;;;10.12;100.00
71666;BME280;59503;53.486;10.196;2023-03-14T07:40:30;98703.13;;;10.17;100.00
71666;BME280;59503;53.486;10.196;2023-03-14T07:42:56;98712.50;;;10.13;100.00
71666;BME280;59503;53.486;10.196;2023-03-14T07:45:22;98712.00;;;10.21;100.00
71666;BME280;59503;53.486;10.196;2023-03-14T07:47:47;98708.97;;;10.16;100.00
71666;BME280;59503;53.486;10.196;2023-03-14T07:50:13;98709.50;;;10.34;100.00
71666;BME280;59503;53.486;10.196;2023-03-14T07:52:38;98700.75;;;10.49;100.00
71666;BME280;59503;53.486;10.196;2023-03-14T07:55:04;98709.84;;;10.89;100.00
71666;BME280;59503;53.486;10.196;2023-03-14T07:57:30;98702.63;;;10.79;100.00
71666;BME280;59503;53.486;10.196;2023-03-14T07:59:55;98703.41;;;10.79;100.00
71666;BME280;59503;53.486;10.196;2023-03-14T08:02:20;98707.34;;;10.75;100.00
71666;BME280;59503;53.486;10.196;2023-03-14T08:04:47;98714.84;;;10.90;100.00
71666;BME280;59503;53.486;10.196;2023-03-14T08:07:13;98714.88;;;10.64;100.00
71666;BME280;59503;53.486;10.196;2023-03-14T08:09:38;98705.34;;;10.52;100.00
71666;BME280;59503;53.486;10.196;2023-03-14T08:12:04;98718.34;;;10.41;100.00
71666;BME280;59503;53.486;10.196;2023-03-14T08:14:29;98721.75;;;10.45;100.00
71666;BME280;59503;53.486;10.196;2023-03-14T08:16:56;98721.97;;;10.31;100.00
71666;BME280;59503;53.486;10.196;2023-03-14T08:19:21;98706.50;;;10.28;100.00
71666;BME280;59503;53.486;10.196;2023-03-14T08:21:47;98709.31;;;10.21;100.00
71666;BME280;59503;53.486;10.196;2023-03-14T08:24:12;98704.97;;;10.24;100.00
71666;BME280;59503;53.486;10.196;2023-03-14T08:26:37;98697.19;;;10.26;100.00
71666;BME280;59503;53.486;10.196;2023-03-14T08:29:03;98705.91;;;10.40;100.00
71666;BME280;59503;53.486;10.196;2023-03-14T08:31:29;98695.91;;;10.60;100.00
71666;BME280;59503;53.486;10.196;2023-03-14T08:33:57;98712.03;;;10.97;100.00
71666;BME280;59503;53.486;10.196;2023-03-14T08:36:23;98707.31;;;10.78;100.00
71666;BME280;59503;53.486;10.196;2023-03-14T08:38:48;98702.94;;;10.84;100.00
71666;BME280;59503;53.486;10.196;2023-03-14T08:41:13;98711.53;;;10.79;100.00
71666;BME280;59503;53.486;10.196;2023-03-14T08:43:39;98714.47;;;10.65;100.00
71666;BME280;59503;53.486;10.196;2023-03-14T08:46:04;98698.75;;;10.80;100.00
71666;BME280;59503;53.486;10.196;2023-03-14T08:48:30;98700.69;;;11.02;100.00
71666;BME280;59503;53.486;10.196;2023-03-14T08:51:03;98706.22;;;10.95;100.00
71666;BME280;59503;53.486;10.196;2023-03-14T08:53:29;98696.03;;;11.03;100.00
71666;BME280;59503;53.486;10.196;2023-03-14T08:55:54;98695.97;;;11.06;100.00
71666;BME280;59503;53.486;10.196;2023-03-14T08:58:19;98694.41;;;11.05;100.00
71666;BME280;59503;53.486;10.196;2023-03-14T09:00:45;98696.44;;;11.01;100.00
71666;BME280;59503;53.486;10.196;2023-03-14T09:03:10;98683.53;;;11.05;100.00
71666;BME280;59503;53.486;10.196;2023-03-14T09:05:36;98705.66;;;11.07;100.00
71666;BME280;59503;53.486;10.196;2023-03-14T09:08:01;98689.75;;;11.06;100.00
71666;BME280;59503;53.486;10.196;2023-03-14T09:10:27;98696.59;;;11.14;100.00
71666;BME280;59503;53.486;10.196;2023-03-14T09:12:52;98692.34;;;11.13;100.00
71666;BME280;59503;53.486;10.196;2023-03-14T09:15:17;98684.97;;;11.13;100.00
71666;BME280;59503;53.486;10.196;2023-03-14T09:17:43;98694.22;;;11.16;100.00
71666;BME280;59503;53.486;10.196;2023-03-14T09:20:09;98681.97;;;11.27;100.00
71666;BME280;59503;53.486;10.196;2023-03-14T09:22:36;98689.41;;;11.27;100.00
71666;BME280;59503;53.486;10.196;2023-03-14T09:25:03;98690.78;;;11.35;100.00
71666;BME280;59503;53.486;10.196;2023-03-14T09:27:29;98684.50;;;11.38;100.00
71666;BME280;59503;53.486;10.196;2023-03-14T09:29:54;98669.56;;;11.26;100.00
71666;BME280;59503;53.486;10.196;2023-03-14T09:32:19;98682.16;;;11.40;100.00
71666;BME280;59503;53.486;10.196;2023-03-14T09:34:45;98682.22;;;11.37;100.00
71666;BME280;59503;53.486;10.196;2023-03-14T09:37:11;98687.66;;;11.37;100.00
71666;BME280;59503;53.486;10.196;2023-03-14T09:39:36;98678.34;;;11.34;100.00
71666;BME280;59503;53.486;10.196;2023-03-14T09:42:04;98696.66;;;11.10;100.00
71666;BME280;59503;53.486;10.196;2023-03-14T09:44:50;98703.28;;;11.09;100.00
71666;BME280;59503;53.486;10.196;2023-03-14T09:47:18;98694.19;;;10.96;100.00
71666;BME280;59503;53.486;10.196;2023-03-14T09:49:45;98696.84;;;11.00;100.00
71666;BME280;59503;53.486;10.196;2023-03-14T09:52:24;98700.63;;;11.06;100.00
71666;BME280;59503;53.486;10.196;2023-03-14T09:54:54;98697.50;;;11.07;100.00
71666;BME280;59503;53.486;10.196;2023-03-14T09:57:24;98699.03;;;11.08;100.00
71666;BME280;59503;53.486;10.196;2023-03-14T09:59:52;98688.22;;;11.05;100.00
71666;BME280;59503;53.486;10.196;2023-03-14T10:02:24;98699.94;;;11.02;100.00
71666;BME280;59503;53.486;10.196;2023-03-14T10:04:52;98697.50;;;11.07;100.00
71666;BME280;59503;53.486;10.196;2023-03-14T10:07:27;98713.06;;;11.07;100.00
71666;BME280;59503;53.486;10.196;2023-03-14T10:09:53;98727.28;;;10.91;100.00
71666;BME280;59503;53.486;10.196;2023-03-14T10:12:19;98748.59;;;10.70;100.00
71666;BME280;59503;53.486;10.196;2023-03-14T10:14:48;98781.09;;;9.79;100.00
71666;BME280;59503;53.486;10.196;2023-03-14T10:17:15;98780.72;;;8.93;100.00
71666;BME280;59503;53.486;10.196;2023-03-14T10:22:18;98822.47;;;8.23;100.00
71666;BME280;59503;53.486;10.196;2023-03-14T10:24:56;98826.78;;;7.99;100.00
71666;BME280;59503;53.486;10.196;2023-03-14T10:27:33;98841.13;;;7.82;100.00
71666;BME280;59503;53.486;10.196;2023-03-14T10:30:02;98852.34;;;7.67;100.00
71666;BME280;59503;53.486;10.196;2023-03-14T10:32:34;98857.78;;;7.49;100.00
71666;BME280;59503;53.486;10.196;2023-03-14T10:35:06;98858.53;;;7.32;100.00
71666;BME280;59503;53.486;10.196;2023-03-14T10:37:33;98847.69;;;7.18;100.00
71666;BME280;59503;53.486;10.196;2023-03-14T10:40:00;98868.19;;;7.19;100.00
71666;BME280;59503;53.486;10.196;2023-03-14T10:42:32;98876.28;;;7.19;100.00
71666;BME280;59503;53.486;10.196;2023-03-14T10:45:02;98883.97;;;7.06;100.00
71666;BME280;59503;53.486;10.196;2023-03-14T10:47:29;98916.38;;;6.99;100.00
71666;BME280;59503;53.486;10.196;2023-03-14T10:49:56;98912.47;;;6.86;100.00
71666;BME280;59503;53.486;10.196;2023-03-14T10:52:23;98932.09;;;6.73;100.00
71666;BME280;59503;53.486;10.196;2023-03-14T10:55:01;98953.63;;;6.55;100.00
71666;BME280;59503;53.486;10.196;2023-03-14T10:57:27;98970.47;;;6.35;100.00
71666;BME280;59503;53.486;10.196;2023-03-14T10:59:55;98972.22;;;6.09;100.00
71666;BME280;59503;53.486;10.196;2023-03-14T11:05:34;99003.66;;;5.88;100.00
71666;BME280;59503;53.486;10.196;2023-03-14T11:08:11;99011.75;;;5.55;100.00
71666;BME280;59503;53.486;10.196;2023-03-14T11:10:44;99043.28;;;5.47;100.00
71666;BME280;59503;53.486;10.196;2023-03-14T11:19:32;99095.47;;;4.76;100.00
71666;BME280;59503;53.486;10.196;2023-03-14T11:24:49;99116.63;;;4.52;100.00
71666;BME280;59503;53.486;10.196;2023-03-14T11:27:27;99118.28;;;4.37;100.00
71666;BME280;59503;53.486;10.196;2023-03-14T11:30:15;99111.63;;;4.28;100.00
71666;BME280;59503;53.486;10.196;2023-03-14T11:35:45;99156.31;;;4.36;100.00
71666;BME280;59503;53.486;10.196;2023-03-14T11:38:28;99169.63;;;4.29;100.00
71666;BME280;59503;53.486;10.196;2023-03-14T11:40:57;99179.06;;;4.19;100.00
71666;BME280;59503;53.486;10.196;2023-03-14T11:45:59;99196.97;;;4.12;100.00
71666;BME280;59503;53.486;10.196;2023-03-14T11:48:41;99220.06;;;4.13;100.00
71666;BME280;59503;53.486;10.196;2023-03-14T11:51:24;99224.72;;;4.16;100.00
71666;BME280;59503;53.486;10.196;2023-03-14T11:56:34;99228.34;;;4.04;100.00
71666;BME280;59503;53.486;10.196;2023-03-14T11:59:12;99240.19;;;4.00;100.00
71666;BME280;59503;53.486;10.196;2023-03-14T12:01:54;99244.19;;;4.09;100.00
71666;BME280;59503;53.486;10.196;2023-03-14T12:06:56;99236.47;;;4.08;100.00
71666;BME280;59503;53.486;10.196;2023-03-14T12:09:23;99247.66;;;4.10;100.00
71666;BME280;59503;53.486;10.196;2023-03-14T12:12:03;99254.66;;;4.14;100.00
71666;BME280;59503;53.486;10.196;2023-03-14T12:14:33;99256.13;;;4.12;100.00
71666;BME280;59503;53.486;10.196;2023-03-14T12:20:19;99283.59;;;4.21;100.00
71666;BME280;59503;53.486;10.196;2023-03-14T12:22:46;99295.13;;;4.21;100.00
71666;BME280;59503;53.486;10.196;2023-03-14T12:25:24;99304.59;;;4.15;100.00
71666;BME280;59503;53.486;10.196;2023-03-14T12:30:39;99315.16;;;4.05;100.00
71666;BME280;59503;53.486;10.196;2023-03-14T12:35:44;99325.06;;;4.20;100.00
71666;BME280;59503;53.486;10.196;2023-03-14T12:38:17;99314.72;;;4.22;100.00
71666;BME280;59503;53.486;10.196;2023-03-14T12:43:32;99334.97;;;4.35;100.00
71666;BME280;59503;53.486;10.196;2023-03-14T12:48:44;99354.88;;;4.49;100.00
71666;BME280;59503;53.486;10.196;2023-03-14T12:51:18;99371.94;;;4.57;100.00
71666;BME280;59503;53.486;10.196;2023-03-14T12:54:10;99378.16;;;4.61;100.00
71666;BME280;59503;53.486;10.196;2023-03-14T12:56:45;99381.56;;;4.58;100.00
71666;BME280;59503;53.486;10.196;2023-03-14T12:59:30;99388.91;;;4.61;100.00
71666;BME280;59503;53.486;10.196;2023-03-14T13:02:02;99398.06;;;4.56;100.00
71666;BME280;59503;53.486;10.196;2023-03-14T13:04:51;99400.53;;;4.65;100.00
71666;BME280;59503;53.486;10.196;2023-03-14T13:12:56;99427.28;;;4.96;100.00
71666;BME280;59503;53.486;10.196;2023-03-14T13:15:34;99429.69;;;5.01;100.00
71666;BME280;59503;53.486;10.196;2023-03-14T13:18:17;99423.59;;;5.04;100.00
71666;BME280;59503;53.486;10.196;2023-03-14T13:20:51;99444.16;;;5.12;100.00
71666;BME280;59503;53.486;10.196;2023-03-14T13:23:26;99441.75;;;5.07;100.00
71666;BME280;59503;53.486;10.196;2023-03-14T13:25:52;99456.91;;;4.96;100.00
71666;BME280;59503;53.486;10.196;2023-03-14T13:28:18;99458.88;;;4.99;100.00
71666;BME280;59503;53.486;10.196;2023-03-14T13:30:46;99466.13;;;5.14;100.00
71666;BME280;59503;53.486;10.196;2023-03-14T13:33:18;99473.91;;;5.19;100.00
71666;BME280;59503;53.486;10.196;2023-03-14T13:35:49;99482.38;;;5.21;100.00
71666;BME280;59503;53.486;10.196;2023-03-14T13:38:22;99481.13;;;5.34;100.00
71666;BME280;59503;53.486;10.196;2023-03-14T13:40:49;99496.69;;;5.44;100.00